createdAt,value
2019-01-11T00:05:13.646Z,101741.55
2019-01-11T00:08:02.587Z,101727.35
2019-01-11T00:10:51.411Z,101731.45
2019-01-11T00:13:20.905Z,101726.52
2019-01-11T00:16:09.887Z,101727.08
2019-01-11T00:19:19.606Z,101637.59
2019-01-11T00:25:24.732Z,101723.81
2019-01-11T00:28:13.636Z,101729.55
2019-01-11T00:31:02.448Z,101732.55
2019-01-11T00:33:31.952Z,101730.38
2019-01-11T00:36:20.860Z,101724.64
2019-01-11T00:39:09.832Z,101721.09
2019-01-11T00:41:58.635Z,101717.28
2019-01-11T00:44:47.482Z,101720.56
2019-01-11T00:47:36.373Z,101714.02
2019-01-11T00:50:25.209Z,101705.58
2019-01-11T00:53:06.783Z,101704.20
2019-01-11T00:55:36.277Z,101698.21
2019-01-11T00:58:25.085Z,101705.59
2019-01-11T01:01:13.992Z,101697.40
2019-01-11T01:04:02.927Z,101699.30
2019-01-11T01:06:51.759Z,101700.12
2019-01-11T01:09:40.610Z,101631.70
2019-01-11T01:12:29.497Z,101696.56
2019-01-11T01:18:13.899Z,101696.56
2019-01-11T01:21:02.790Z,101692.22
2019-01-11T01:23:51.632Z,101691.40
2019-01-11T01:29:49.993Z,101696.85
2019-01-11T01:32:38.908Z,101690.85
2019-01-11T01:35:27.715Z,101692.22
2019-01-11T01:38:16.598Z,101692.77
2019-01-11T01:41:05.430Z,101691.13
2019-01-11T01:43:35.008Z,101687.30
2019-01-11T01:46:23.846Z,101686.23
2019-01-11T01:49:12.681Z,101688.67
2019-01-11T01:51:54.338Z,101679.39
2019-01-11T01:54:43.256Z,101673.93
2019-01-11T01:57:32.166Z,101685.13
2019-01-11T02:00:21.131Z,101687.05
2019-01-11T02:03:10.021Z,101687.05
2019-01-11T02:05:58.882Z,101676.66
2019-01-11T02:08:47.759Z,101678.84
2019-01-11T02:11:36.586Z,101676.92
2019-01-11T02:14:25.452Z,101600.34
2019-01-11T02:20:23.642Z,101674.48
2019-01-11T02:23:12.461Z,101679.94
2019-01-11T02:26:01.312Z,101671.19
2019-01-11T02:28:50.150Z,101664.08
2019-01-11T02:31:31.818Z,101668.73
2019-01-11T02:34:20.665Z,101590.26
2019-01-11T02:37:09.470Z,101660.25
2019-01-11T02:39:58.297Z,101658.89
2019-01-11T02:42:47.172Z,101650.70
2019-01-11T02:45:36.009Z,101638.97
2019-01-11T02:48:24.873Z,101637.04
2019-01-11T02:51:13.687Z,101634.59
2019-01-11T02:54:02.502Z,101634.31
2019-01-11T02:56:51.434Z,101630.78
2019-01-11T02:59:40.245Z,101624.20
2019-01-11T03:02:22.325Z,101627.75
2019-01-11T03:05:11.341Z,101626.92
2019-01-11T03:08:20.861Z,101630.72
2019-01-11T03:11:09.713Z,101625.27
2019-01-11T03:13:58.553Z,101627.17
2019-01-11T03:16:47.441Z,101619.54
2019-01-11T03:19:36.340Z,101613.24
2019-01-11T03:22:25.185Z,101611.08
2019-01-11T03:28:29.658Z,101609.70
2019-01-11T03:34:27.955Z,101601.25
2019-01-11T03:37:16.863Z,101598.52
2019-01-11T03:39:58.495Z,101596.86
2019-01-11T03:42:47.364Z,101589.77
2019-01-11T03:45:36.154Z,101586.23
2019-01-11T03:48:25.000Z,101588.14
2019-01-11T03:51:13.834Z,101583.77
2019-01-11T03:54:02.709Z,101581.32
2019-01-11T03:56:51.631Z,101580.48
2019-01-11T03:59:40.640Z,101538.11
2019-01-11T04:02:29.508Z,101566.55
2019-01-11T04:05:18.353Z,101569.03
2019-01-11T04:08:07.266Z,101565.75
2019-01-11T04:10:56.094Z,101561.12
2019-01-11T04:13:45.551Z,101564.12
2019-01-11T04:16:34.435Z,101557.03
2019-01-11T04:19:16.570Z,101555.66
2019-01-11T04:28:00.894Z,101510.88
2019-01-11T04:30:49.731Z,101542.56
2019-01-11T04:33:38.517Z,101542.83
2019-01-11T04:36:27.356Z,101541.18
2019-01-11T04:39:16.188Z,101543.13
2019-01-11T04:42:04.980Z,101535.20
2019-01-11T04:47:49.469Z,101535.48
2019-01-11T04:50:38.286Z,101536.02
2019-01-11T04:53:19.939Z,101527.81
2019-01-11T04:56:08.735Z,101527.81
2019-01-11T04:58:57.641Z,101532.19
2019-01-11T05:01:46.455Z,101531.93
2019-01-11T05:04:35.348Z,101532.73
2019-01-11T05:07:24.198Z,101525.64
2019-01-11T05:10:33.946Z,101527.00
2019-01-11T05:13:41.860Z,101503.25
2019-01-11T05:16:30.759Z,101527.84
2019-01-11T05:19:19.241Z,101471.03
2019-01-11T05:22:08.179Z,101519.09
2019-01-11T05:24:49.718Z,101517.45
2019-01-11T05:27:38.632Z,101512.53
2019-01-11T05:30:27.444Z,101502.45
2019-01-11T05:33:16.328Z,101514.71
2019-01-11T05:36:05.187Z,101511.98
2019-01-11T05:38:34.706Z,101509.00
2019-01-11T05:41:23.524Z,101508.70
2019-01-11T05:44:12.434Z,101420.24
2019-01-11T05:47:01.246Z,101505.42
2019-01-11T05:49:50.094Z,101509.27
2019-01-11T05:52:38.906Z,101507.90
2019-01-11T05:55:46.762Z,101500.51
2019-01-11T06:01:31.661Z,101502.70
2019-01-11T06:04:39.514Z,101505.45
2019-01-11T06:07:28.439Z,101508.43
2019-01-11T06:10:17.345Z,101503.52
2019-01-11T06:13:06.266Z,101499.71
2019-01-11T06:15:55.221Z,101492.89
2019-01-11T06:18:44.062Z,101500.80
2019-01-11T06:21:32.916Z,101505.17
2019-01-11T06:24:21.711Z,101499.97
2019-01-11T06:27:10.563Z,101500.53
2019-01-11T06:29:40.169Z,101498.88
2019-01-11T06:32:29.070Z,101503.81
2019-01-11T06:35:18.122Z,101498.34
2019-01-11T06:37:47.672Z,101507.89
2019-01-11T06:40:36.726Z,101507.63
2019-01-11T06:43:25.642Z,101504.06
2019-01-11T06:49:44.789Z,101433.64
2019-01-11T06:52:26.970Z,101508.72
2019-01-11T06:55:15.877Z,101505.16
2019-01-11T06:58:04.941Z,101501.61
2019-01-11T07:00:53.765Z,101505.70
2019-01-11T07:03:42.689Z,101501.06
2019-01-11T07:06:52.382Z,101502.70
2019-01-11T07:09:41.288Z,101498.88
2019-01-11T07:12:30.144Z,101495.05
2019-01-11T07:14:59.594Z,101506.52
2019-01-11T07:17:41.168Z,101509.52
2019-01-11T07:20:29.995Z,101437.73
2019-01-11T07:23:18.893Z,101507.89
2019-01-11T07:26:07.743Z,101503.80
2019-01-11T07:28:56.652Z,101507.36
2019-01-11T07:34:44.969Z,101504.88
2019-01-11T07:37:35.324Z,101504.34
2019-01-11T07:40:24.205Z,101505.16
2019-01-11T07:42:53.706Z,101509.25
2019-01-11T07:45:42.605Z,101517.45
2019-01-11T07:48:31.444Z,101514.72
2019-01-11T07:51:20.286Z,101512.55
2019-01-11T07:54:02.641Z,101509.25
2019-01-11T07:59:46.885Z,101514.44
2019-01-11T08:02:35.774Z,101509.55
2019-01-11T08:05:27.405Z,101504.08
2019-01-11T08:07:56.873Z,101493.96
2019-01-11T08:10:45.704Z,101500.26
2019-01-11T08:13:34.706Z,101499.97
2019-01-11T08:16:23.587Z,101507.09
2019-01-11T08:19:12.489Z,101505.43
2019-01-11T08:22:01.364Z,101511.70
2019-01-11T08:27:26.729Z,101511.98
2019-01-11T08:33:37.825Z,101514.46
2019-01-11T08:36:26.732Z,101505.45
2019-01-11T08:39:15.556Z,101473.50
2019-01-11T08:42:23.737Z,101504.90
2019-01-11T08:45:13.927Z,101508.70
2019-01-11T08:48:02.793Z,101500.79
2019-01-11T08:50:51.640Z,101510.36
2019-01-11T08:53:40.579Z,101519.94
2019-01-11T08:56:10.285Z,101509.55
2019-01-11T08:58:59.249Z,101498.08
2019-01-11T09:01:48.137Z,101433.06
2019-01-11T09:04:36.928Z,101502.44
2019-01-11T09:07:25.770Z,101500.24
2019-01-11T09:10:11.833Z,101505.16
2019-01-11T09:12:41.396Z,101500.50
2019-01-11T09:15:10.962Z,101505.95
2019-01-11T09:18:18.803Z,101504.86
2019-01-11T09:21:09.500Z,101508.14
2019-01-11T09:23:58.472Z,101501.02
2019-01-11T09:27:07.979Z,101458.98
2019-01-11T09:29:58.620Z,101495.80
2019-01-11T09:32:47.597Z,101510.86
2019-01-11T09:35:17.069Z,101507.84
2019-01-11T09:38:06.061Z,101514.38
2019-01-11T09:40:54.947Z,101508.63
2019-01-11T09:43:43.852Z,101510.24
2019-01-11T09:46:32.679Z,101511.59
2019-01-11T09:49:21.528Z,101510.20
2019-01-11T09:51:51.018Z,101513.75
2019-01-11T09:54:39.832Z,101512.63
2019-01-11T09:57:28.664Z,101511.80
2019-01-11T10:00:38.379Z,101510.41
2019-01-11T10:03:08.015Z,101511.48
2019-01-11T10:05:50.085Z,101513.62
2019-01-11T10:08:19.584Z,101514.45
2019-01-11T10:10:49.215Z,101506.52
2019-01-11T10:13:38.083Z,101512.52
2019-01-11T10:16:07.687Z,101515.23
2019-01-11T10:18:56.521Z,101514.93
2019-01-11T10:21:45.324Z,101503.98
2019-01-11T10:24:34.235Z,101508.05
2019-01-11T10:27:22.711Z,101505.02
2019-01-11T10:30:31.989Z,101502.52
2019-01-11T10:33:01.468Z,101494.57
2019-01-11T10:35:50.574Z,101487.99
2019-01-11T10:38:39.494Z,101495.38
2019-01-11T10:41:28.301Z,101488.75
2019-01-11T10:44:17.232Z,101484.08
2019-01-11T10:47:06.115Z,101486.24
2019-01-11T10:49:54.953Z,101490.05
2019-01-11T10:52:43.897Z,101490.84
2019-01-11T10:58:48.896Z,101479.05
2019-01-11T11:01:37.752Z,101477.37
2019-01-11T11:04:26.626Z,101469.41
2019-01-11T11:07:15.487Z,101461.45
2019-01-11T11:10:25.659Z,101471.01
2019-01-11T11:13:35.138Z,101469.63
2019-01-11T11:16:04.624Z,101467.42
2019-01-11T11:18:53.516Z,101471.22
2019-01-11T11:22:10.489Z,101388.55
2019-01-11T11:24:59.355Z,101453.63
2019-01-11T11:27:39.105Z,101458.53
2019-01-11T11:30:27.932Z,101466.17
2019-01-11T11:33:16.801Z,101463.96
2019-01-11T11:35:46.424Z,101462.05
2019-01-11T11:38:35.296Z,101460.64
2019-01-11T11:41:24.222Z,101422.75
2019-01-11T11:43:53.690Z,101458.16
2019-01-11T11:46:42.651Z,101460.59
2019-01-11T11:49:12.125Z,101468.23
2019-01-11T11:51:41.727Z,101457.80
2019-01-11T11:54:30.651Z,101459.16
2019-01-11T11:57:19.482Z,101457.48
2019-01-11T12:00:27.711Z,101447.30
2019-01-11T12:03:09.425Z,101445.35
2019-01-11T12:05:58.324Z,101441.48
2019-01-11T12:08:47.216Z,101435.42
2019-01-11T12:11:36.092Z,101432.93
2019-01-11T12:14:24.891Z,101424.66
2019-01-11T12:17:13.839Z,101422.17
2019-01-11T12:20:02.745Z,101420.48
2019-01-11T12:22:51.616Z,101415.84
2019-01-11T12:25:52.769Z,101417.47
2019-01-11T12:28:24.141Z,101384.23
2019-01-11T12:31:13.078Z,101407.02
2019-01-11T12:34:01.910Z,101394.11
2019-01-11T12:36:50.721Z,101388.34
2019-01-11T12:39:39.583Z,101389.16
2019-01-11T12:42:30.290Z,101382.30
2019-01-11T12:45:19.128Z,101378.98
2019-01-11T12:48:08.128Z,101379.22
2019-01-11T12:50:37.618Z,101300.20
2019-01-11T12:53:47.200Z,101366.23
2019-01-11T12:56:28.564Z,101373.08
2019-01-11T12:59:17.485Z,101362.29
2019-01-11T13:02:06.388Z,101373.78
2019-01-11T13:04:35.913Z,101359.22
2019-01-11T13:07:05.467Z,101362.16
2019-01-11T13:09:53.957Z,101366.80
2019-01-11T13:12:42.480Z,101362.94
2019-01-11T13:15:32.900Z,101358.27
2019-01-11T13:18:33.782Z,101353.30
2019-01-11T13:21:12.441Z,101356.04
2019-01-11T13:24:01.360Z,101269.47
2019-01-11T13:29:40.043Z,101341.98
2019-01-11T13:32:28.923Z,101342.78
2019-01-11T13:35:17.980Z,101339.23
2019-01-11T13:38:06.903Z,101340.02
2019-01-11T13:40:55.718Z,101323.89
2019-01-11T13:43:44.623Z,101328.98
2019-01-11T13:46:33.468Z,101332.50
2019-01-11T13:49:22.327Z,101333.84
2019-01-11T13:52:11.214Z,101330.50
2019-01-11T13:55:00.234Z,101332.39
2019-01-11T13:57:49.120Z,101330.17
2019-01-11T14:00:38.021Z,101333.42
2019-01-11T14:03:26.890Z,101333.69
2019-01-11T14:06:15.842Z,101334.20
2019-01-11T14:09:25.562Z,101330.34
2019-01-11T14:11:55.069Z,101325.94
2019-01-11T14:14:43.912Z,101321.50
2019-01-11T14:17:32.750Z,101319.59
2019-01-11T14:20:21.645Z,101314.90
2019-01-11T14:23:10.581Z,101311.30
2019-01-11T14:25:59.510Z,101318.67
2019-01-11T14:28:40.817Z,101309.32
2019-01-11T14:31:29.732Z,101314.21
2019-01-11T14:34:18.551Z,101317.22
2019-01-11T14:37:07.384Z,101318.30
2019-01-11T14:39:56.285Z,101317.19
2019-01-11T14:42:45.294Z,101321.05
2019-01-11T14:45:55.052Z,101317.73
2019-01-11T14:48:43.872Z,101321.56
2019-01-11T14:54:40.619Z,101316.58
2019-01-11T14:57:10.209Z,101320.12
2019-01-11T14:59:59.059Z,101317.64
2019-01-11T15:02:48.018Z,101320.39
2019-01-11T15:05:36.873Z,101317.89
2019-01-11T15:08:25.746Z,101289.08
2019-01-11T15:11:14.646Z,101324.45
2019-01-11T15:13:44.196Z,101331.83
2019-01-11T15:16:33.115Z,101322.22
2019-01-11T15:19:21.937Z,101327.96
2019-01-11T15:22:10.881Z,101326.27
2019-01-11T15:24:59.662Z,101302.11
2019-01-11T15:27:48.516Z,101329.25
2019-01-11T15:30:28.551Z,101330.05
2019-01-11T15:33:17.391Z,101322.89
2019-01-11T15:36:06.351Z,101331.94
2019-01-11T15:38:55.286Z,101330.02
2019-01-11T15:41:44.089Z,101325.06
2019-01-11T15:44:32.928Z,101326.16
2019-01-11T15:47:21.742Z,101323.66
2019-01-11T15:50:31.471Z,101275.31
2019-01-11T15:53:00.948Z,101317.56
2019-01-11T15:55:43.040Z,101323.56
2019-01-11T15:58:31.863Z,101321.59
2019-01-11T16:01:20.886Z,101320.47
2019-01-11T16:04:09.812Z,101316.03
2019-01-11T16:06:58.701Z,101260.41
2019-01-11T16:10:06.676Z,101321.78
2019-01-11T16:12:55.631Z,101315.75
2019-01-11T16:16:05.410Z,101289.67
2019-01-11T16:18:57.303Z,101311.27
2019-01-11T16:21:46.125Z,101270.29
2019-01-11T16:24:15.621Z,101304.30
2019-01-11T16:27:04.513Z,101309.45
2019-01-11T16:29:53.378Z,101305.58
2019-01-11T16:32:42.267Z,101306.34
2019-01-11T16:35:31.211Z,101309.86
2019-01-11T16:38:20.149Z,101303.75
2019-01-11T16:41:09.054Z,101305.89
2019-01-11T16:43:57.998Z,101314.64
2019-01-11T16:46:46.903Z,101245.02
2019-01-11T16:49:50.006Z,101314.32
2019-01-11T16:52:27.779Z,101315.13
2019-01-11T16:55:16.700Z,101321.99
2019-01-11T16:57:58.341Z,101322.56
2019-01-11T17:00:47.467Z,101320.91
2019-01-11T17:06:45.781Z,101333.28
2019-01-11T17:09:34.665Z,101326.69
2019-01-11T17:12:23.564Z,101331.33
2019-01-11T17:15:31.801Z,101334.58
2019-01-11T17:18:20.713Z,101329.59
2019-01-11T17:21:30.471Z,101325.15
2019-01-11T17:24:19.347Z,101327.03
2019-01-11T17:27:08.275Z,101326.74
2019-01-11T17:29:57.096Z,101332.50
2019-01-11T17:32:46.096Z,101316.20
2019-01-11T17:35:34.952Z,101332.14
2019-01-11T17:38:23.795Z,101345.63
2019-01-11T17:41:12.734Z,101344.00
2019-01-11T17:44:01.621Z,101339.63
2019-01-11T17:46:50.544Z,101345.67
2019-01-11T17:49:39.484Z,101342.37
2019-01-11T17:52:28.357Z,101345.13
2019-01-11T17:54:57.872Z,101340.75
2019-01-11T17:57:39.715Z,101345.13
2019-01-11T18:00:47.846Z,101345.13
2019-01-11T18:03:36.720Z,101353.05
2019-01-11T18:06:25.550Z,101287.56
2019-01-11T18:09:14.393Z,101349.25
2019-01-11T18:12:03.359Z,101350.62
2019-01-11T18:14:52.271Z,101287.56
2019-01-11T18:17:41.190Z,101354.17
2019-01-11T18:20:30.527Z,101353.62
2019-01-11T18:23:06.539Z,101298.55
2019-01-11T18:25:50.832Z,101358.87
2019-01-11T18:28:39.746Z,101359.67
2019-01-11T18:31:28.634Z,101358.04
2019-01-11T18:34:17.543Z,101360.50
2019-01-11T18:37:06.510Z,101333.62
2019-01-11T18:39:57.848Z,101369.00
2019-01-11T18:42:26.711Z,101373.38
2019-01-11T18:45:15.782Z,101376.39
2019-01-11T18:48:04.757Z,101377.51
2019-01-11T18:50:53.311Z,101342.64
2019-01-11T18:53:42.212Z,101384.64
2019-01-11T18:56:23.980Z,101386.02
2019-01-11T18:59:33.753Z,101387.32
2019-01-11T19:02:22.637Z,101389.02
2019-01-11T19:08:27.363Z,101379.23
2019-01-11T19:11:16.273Z,101398.39
2019-01-11T19:13:45.893Z,101389.63
2019-01-11T19:16:55.655Z,101398.67
2019-01-11T19:19:44.510Z,101383.91
2019-01-11T19:22:14.145Z,101394.00
2019-01-11T19:25:03.096Z,101399.77
2019-01-11T19:27:52.071Z,101366.55
2019-01-11T19:30:40.889Z,101394.77
2019-01-11T19:33:22.824Z,101318.39
2019-01-11T19:36:11.666Z,101398.03
2019-01-11T19:39:00.675Z,101340.09
2019-01-11T19:41:49.574Z,101396.40
2019-01-11T19:44:38.515Z,101399.69
2019-01-11T19:47:29.863Z,101393.50
2019-01-11T19:50:38.052Z,101394.52
2019-01-11T19:53:27.714Z,101400.88
2019-01-11T19:56:10.586Z,101403.37
2019-01-11T19:58:59.427Z,101326.48
2019-01-11T20:01:48.263Z,101408.36
2019-01-11T20:04:37.187Z,101408.65
2019-01-11T20:07:29.181Z,101402.35
2019-01-11T20:10:38.911Z,101403.73
2019-01-11T20:13:27.771Z,101407.59
2019-01-11T20:16:16.770Z,101403.22
2019-01-11T20:18:46.376Z,101405.20
2019-01-11T20:21:35.240Z,101406.31
2019-01-11T20:24:24.095Z,101415.68
2019-01-11T20:27:12.987Z,101414.91
2019-01-11T20:30:01.900Z,101413.28
2019-01-11T20:32:50.889Z,101408.61
2019-01-11T20:35:39.772Z,101407.24
2019-01-11T20:38:28.710Z,101411.08
2019-01-11T20:41:17.679Z,101408.88
2019-01-11T20:44:06.606Z,101406.98
2019-01-11T20:46:55.569Z,101403.72
2019-01-11T20:49:44.465Z,101401.84
2019-01-11T20:52:25.851Z,101402.70
2019-01-11T20:55:33.941Z,101405.77
2019-01-11T20:58:22.777Z,101400.55
2019-01-11T21:04:07.390Z,101397.88
2019-01-11T21:10:26.630Z,101404.77
2019-01-11T21:13:15.647Z,101404.77
2019-01-11T21:16:05.426Z,101405.09
2019-01-11T21:18:54.388Z,101409.75
2019-01-11T21:21:43.240Z,101408.89
2019-01-11T21:24:32.238Z,101413.88
2019-01-11T21:27:21.196Z,101418.57
2019-01-11T21:30:30.984Z,101409.23
2019-01-11T21:33:19.862Z,101421.86
2019-01-11T21:36:08.791Z,101414.99
2019-01-11T21:38:57.379Z,101418.60
2019-01-11T21:41:46.296Z,101422.20
2019-01-11T21:44:15.881Z,101428.83
2019-01-11T21:47:04.826Z,101429.69
2019-01-11T21:49:53.764Z,101410.13
2019-01-11T21:52:35.297Z,101431.91
2019-01-11T21:55:24.214Z,101428.91
2019-01-11T21:58:13.030Z,101431.91
2019-01-11T22:01:01.927Z,101425.05
2019-01-11T22:03:50.781Z,101428.05
2019-01-11T22:06:39.713Z,101429.16
2019-01-11T22:09:28.553Z,101424.79
2019-01-11T22:12:17.421Z,101430.83
2019-01-11T22:15:27.125Z,101435.27
2019-01-11T22:18:16.126Z,101432.26
2019-01-11T22:20:45.628Z,101433.05
2019-01-11T22:23:34.092Z,101430.88
2019-01-11T22:26:23.102Z,101428.94
2019-01-11T22:29:12.037Z,101431.14
2019-01-11T22:32:00.854Z,101369.13
2019-01-11T22:34:42.652Z,101430.31
2019-01-11T22:37:31.516Z,101426.77
2019-01-11T22:43:30.374Z,101432.26
2019-01-11T22:46:19.237Z,101436.64
2019-01-11T22:49:08.107Z,101433.05
2019-01-11T22:51:57.082Z,101430.56
2019-01-11T22:54:45.911Z,101431.66
2019-01-11T22:57:34.802Z,101433.28
2019-01-11T23:01:02.355Z,101426.67
2019-01-11T23:03:51.325Z,101426.67
2019-01-11T23:07:01.078Z,101353.48
2019-01-11T23:09:49.946Z,101419.78
2019-01-11T23:12:59.690Z,101429.66
2019-01-11T23:15:48.676Z,101422.20
2019-01-11T23:18:37.610Z,101427.42
2019-01-11T23:21:26.433Z,101430.16
2019-01-11T23:24:17.620Z,101419.97
2019-01-11T23:27:05.883Z,101432.09
2019-01-11T23:29:54.798Z,101423.84
2019-01-11T23:32:36.139Z,101419.46
2019-01-11T23:35:18.387Z,101424.70
2019-01-11T23:38:07.178Z,101424.44
2019-01-11T23:40:56.018Z,101422.81
2019-01-11T23:43:44.914Z,101430.80
2019-01-11T23:46:14.427Z,101427.80
2019-01-11T23:49:03.236Z,101430.83
2019-01-11T23:51:52.147Z,101438.02
2019-01-11T23:54:41.042Z,101436.13
2019-01-11T23:57:29.871Z,101433.12
